createdAt,value
2023-03-12T00:00:04.544Z,94355.97
2023-03-12T00:02:35.889Z,94350.38
2023-03-12T00:05:02.931Z,94356.13
2023-03-12T00:07:29.603Z,94353.22
2023-03-12T00:09:56.561Z,94373.66
2023-03-12T00:12:23.259Z,94377.59
2023-03-12T00:14:50.357Z,94380.94
2023-03-12T00:17:17.087Z,94371.78
2023-03-12T00:19:45.305Z,94390.25
2023-03-12T00:22:12.069Z,94401.34
2023-03-12T00:24:39.301Z,94391.66
2023-03-12T00:27:07.245Z,94379.44
2023-03-12T00:29:34.066Z,94385.78
2023-03-12T00:32:00.932Z,94388.56
2023-03-12T00:34:27.718Z,94393.56
2023-03-12T00:36:54.871Z,94390.66
2023-03-12T00:39:22.118Z,94396.78
2023-03-12T00:41:48.812Z,94394.44
2023-03-12T00:44:15.649Z,94394.25
2023-03-12T00:46:42.391Z,94390.88
2023-03-12T00:49:09.487Z,94396.03
2023-03-12T00:51:36.290Z,94389.72
2023-03-12T00:54:03.032Z,94397.41
2023-03-12T00:56:30.024Z,94393.22
2023-03-12T00:58:56.861Z,94394.91
2023-03-12T01:01:23.656Z,94399.53
2023-03-12T01:03:54.539Z,94382.41
2023-03-12T01:06:21.570Z,94382.72
2023-03-12T01:08:48.470Z,94389.38
2023-03-12T01:11:20.986Z,94385.50
2023-03-12T01:13:48.330Z,94382.75
2023-03-12T01:16:15.556Z,94381.56
2023-03-12T01:18:42.267Z,94386.41
2023-03-12T01:21:09.439Z,94378.59
2023-03-12T01:23:37.637Z,94360.00
2023-03-12T01:26:04.505Z,94366.41
2023-03-12T01:28:31.826Z,94371.75
2023-03-12T01:30:58.593Z,94376.38
2023-03-12T01:33:25.853Z,94384.69
2023-03-12T01:35:52.804Z,94379.81
2023-03-12T01:38:21.006Z,94379.25
2023-03-12T01:40:48.046Z,94373.13
2023-03-12T01:43:28.611Z,94375.50
2023-03-12T01:46:06.182Z,94377.53
2023-03-12T01:48:42.017Z,94389.25
2023-03-12T01:51:12.606Z,94377.59
2023-03-12T01:53:43.035Z,94360.25
2023-03-12T01:56:11.247Z,94364.00
2023-03-12T01:58:42.507Z,94373.75
2023-03-12T02:01:09.349Z,94372.91
2023-03-12T02:03:37.227Z,94370.47
2023-03-12T02:06:11.879Z,94363.63
2023-03-12T02:08:44.062Z,94369.78
2023-03-12T02:11:12.129Z,94348.31
2023-03-12T02:13:40.472Z,94364.16
2023-03-12T02:16:09.849Z,94362.72
2023-03-12T02:18:36.877Z,94361.88
2023-03-12T02:21:34.143Z,94363.50
2023-03-12T02:24:09.413Z,94360.28
2023-03-12T02:26:38.694Z,94362.69
2023-03-12T02:29:09.010Z,94352.94
2023-03-12T02:31:43.739Z,94365.63
2023-03-12T02:34:11.413Z,94380.72
2023-03-12T02:36:38.197Z,94389.50
2023-03-12T02:39:05.931Z,94399.25
2023-03-12T02:41:44.402Z,94401.44
2023-03-12T02:44:25.655Z,94397.22
2023-03-12T02:46:55.619Z,94391.41
2023-03-12T02:49:25.696Z,94393.88
2023-03-12T02:51:53.079Z,94399.69
2023-03-12T02:54:21.839Z,94396.38
2023-03-12T02:56:49.592Z,94399.31
2023-03-12T02:59:17.919Z,94401.09
2023-03-12T03:01:45.511Z,94398.84
2023-03-12T03:04:13.576Z,94382.88
2023-03-12T03:06:43.113Z,94390.47
2023-03-12T03:09:10.848Z,94404.19
2023-03-12T03:11:37.566Z,94405.91
2023-03-12T03:14:07.034Z,94404.59
2023-03-12T03:16:34.899Z,94401.16
2023-03-12T03:19:01.883Z,94395.69
2023-03-12T03:21:29.799Z,94408.22
2023-03-12T03:23:57.183Z,94394.00
2023-03-12T03:26:25.110Z,94409.69
2023-03-12T03:28:53.471Z,94417.84
2023-03-12T03:31:20.577Z,94406.13
2023-03-12T03:33:48.223Z,94375.75
2023-03-12T03:36:16.164Z,94383.63
2023-03-12T03:38:59.444Z,94397.50
2023-03-12T03:41:27.170Z,94407.72
2023-03-12T03:43:58.948Z,94397.69
2023-03-12T03:46:27.444Z,94390.28
2023-03-12T03:48:59.990Z,94391.03
2023-03-12T03:51:28.199Z,94402.34
2023-03-12T03:54:00.558Z,94406.66
2023-03-12T03:56:29.001Z,94403.97
2023-03-12T03:58:58.550Z,94380.19
2023-03-12T04:01:26.632Z,94392.75
2023-03-12T04:03:55.147Z,94377.13
2023-03-12T04:06:21.966Z,94399.66
2023-03-12T04:08:48.788Z,94391.84
2023-03-12T04:11:19.967Z,94401.81
2023-03-12T04:13:47.149Z,94388.06
2023-03-12T04:16:16.853Z,94392.69
2023-03-12T04:18:44.310Z,94407.50
2023-03-12T04:21:13.630Z,94406.88
2023-03-12T04:23:41.653Z,94413.16
2023-03-12T04:26:09.942Z,94403.13
2023-03-12T04:28:38.208Z,94411.91
2023-03-12T04:31:08.334Z,94411.03
2023-03-12T04:33:40.920Z,94410.03
2023-03-12T04:36:11.676Z,94413.03
2023-03-12T04:38:40.545Z,94428.53
2023-03-12T04:41:15.663Z,94399.28
2023-03-12T04:44:10.894Z,94398.59
2023-03-12T04:46:40.083Z,94418.84
2023-03-12T04:49:07.524Z,94406.00
2023-03-12T04:51:36.437Z,94402.38
2023-03-12T04:54:04.627Z,94406.22
2023-03-12T04:56:32.120Z,94418.94
2023-03-12T04:58:59.411Z,94427.81
2023-03-12T05:01:33.611Z,94420.59
2023-03-12T05:04:04.195Z,94418.28
2023-03-12T05:06:31.271Z,94422.53
2023-03-12T05:08:58.332Z,94397.53
2023-03-12T05:11:25.408Z,94405.03
2023-03-12T05:13:52.209Z,94397.69
2023-03-12T05:16:19.572Z,94383.06
2023-03-12T05:18:47.382Z,94383.66
2023-03-12T05:21:18.568Z,94379.38
2023-03-12T05:23:46.531Z,94371.06
2023-03-12T05:26:20.236Z,94365.94
2023-03-12T05:28:47.469Z,94363.66
2023-03-12T05:31:15.983Z,94376.59
2023-03-12T05:33:44.292Z,94376.53
2023-03-12T05:36:12.428Z,94370.34
2023-03-12T05:38:39.806Z,94366.19
2023-03-12T05:41:07.396Z,94351.06
2023-03-12T05:43:36.617Z,94345.94
2023-03-12T05:46:05.014Z,94345.94
2023-03-12T05:48:36.636Z,94350.19
2023-03-12T05:51:04.105Z,94346.28
2023-03-12T05:53:33.100Z,94386.38
2023-03-12T05:56:06.021Z,94378.28
2023-03-12T05:58:34.536Z,94389.00
2023-03-12T06:01:02.343Z,94368.50
2023-03-12T06:03:29.534Z,94375.50
2023-03-12T06:05:57.521Z,94367.72
2023-03-12T06:08:24.725Z,94371.72
2023-03-12T06:10:53.416Z,94359.91
2023-03-12T06:13:21.032Z,94358.50
2023-03-12T06:15:48.212Z,94363.56
2023-03-12T06:18:15.831Z,94367.25
2023-03-12T06:20:43.698Z,94373.66
2023-03-12T06:23:10.914Z,94363.28
2023-03-12T06:25:37.786Z,94371.94
2023-03-12T06:28:04.807Z,94399.13
2023-03-12T06:30:32.082Z,94364.09
2023-03-12T06:32:59.786Z,94356.75
2023-03-12T06:35:27.875Z,94359.94
2023-03-12T06:37:55.052Z,94372.09
2023-03-12T06:40:21.953Z,94354.19
2023-03-12T06:42:48.830Z,94348.63
2023-03-12T06:45:15.614Z,94333.41
2023-03-12T06:47:42.945Z,94338.47
2023-03-12T06:50:10.417Z,94332.06
2023-03-12T06:52:37.104Z,94350.00
2023-03-12T06:55:04.195Z,94359.66
2023-03-12T06:57:30.896Z,94346.41
2023-03-12T06:59:58.082Z,94326.22
2023-03-12T07:02:25.694Z,94347.81
2023-03-12T07:04:52.503Z,94360.94
2023-03-12T07:07:20.137Z,94348.56
2023-03-12T07:09:46.937Z,94362.72
2023-03-12T07:12:14.303Z,94367.16
2023-03-12T07:14:41.041Z,94347.50
2023-03-12T07:17:07.685Z,94361.06
2023-03-12T07:19:34.440Z,94353.16
2023-03-12T07:22:01.340Z,94356.78
2023-03-12T07:24:28.392Z,94359.53
2023-03-12T07:26:55.628Z,94375.50
2023-03-12T07:29:22.331Z,94362.69
2023-03-12T07:31:49.012Z,94374.75
2023-03-12T07:34:16.008Z,94390.72
2023-03-12T07:36:43.307Z,94387.19
2023-03-12T07:39:10.138Z,94362.34
2023-03-12T07:41:39.066Z,94364.34
2023-03-12T07:44:06.477Z,94379.28
2023-03-12T07:46:33.279Z,94375.88
2023-03-12T07:49:01.020Z,94361.41
2023-03-12T07:51:27.998Z,94392.63
2023-03-12T07:53:55.347Z,94393.41
2023-03-12T07:56:22.471Z,94364.06
2023-03-12T07:58:49.340Z,94381.22
2023-03-12T08:01:16.191Z,94392.72
2023-03-12T08:03:43.575Z,94373.66
2023-03-12T08:06:10.450Z,94361.81
2023-03-12T08:08:41.667Z,94361.34
2023-03-12T08:11:09.393Z,94370.78
2023-03-12T08:13:36.261Z,94351.78
2023-03-12T08:16:03.633Z,94345.06
2023-03-12T08:18:31.179Z,94377.88
2023-03-12T08:20:57.912Z,94356.59
2023-03-12T08:23:25.016Z,94349.28
2023-03-12T08:25:52.187Z,94339.94
2023-03-12T08:28:19.845Z,94346.97
2023-03-12T08:30:48.492Z,94374.03
2023-03-12T08:33:16.991Z,94377.53
2023-03-12T08:35:45.342Z,94351.72
2023-03-12T08:38:12.492Z,94356.84
2023-03-12T08:40:39.431Z,94356.69
2023-03-12T08:43:07.658Z,94367.66
2023-03-12T08:45:36.453Z,94361.78
2023-03-12T08:48:04.683Z,94402.13
2023-03-12T08:50:32.266Z,94382.25
2023-03-12T08:53:00.574Z,94384.22
2023-03-12T08:55:30.589Z,94368.22
2023-03-12T08:57:57.650Z,94376.47
2023-03-12T09:00:25.266Z,94359.44
2023-03-12T09:02:53.677Z,94372.72
2023-03-12T09:05:20.892Z,94375.56
2023-03-12T09:07:47.887Z,94385.44
2023-03-12T09:10:15.602Z,94388.44
2023-03-12T09:12:42.323Z,94361.56
2023-03-12T09:15:09.892Z,94395.81
2023-03-12T09:17:37.573Z,94398.66
2023-03-12T09:20:09.695Z,94400.41
2023-03-12T09:22:37.468Z,94399.78
2023-03-12T09:25:05.522Z,94413.59
2023-03-12T09:27:39.889Z,94373.28
2023-03-12T09:30:09.156Z,94431.78
2023-03-12T09:32:36.324Z,94435.00
2023-03-12T09:35:03.186Z,94411.91
2023-03-12T09:37:32.292Z,94426.50
2023-03-12T09:39:59.594Z,94441.06
2023-03-12T09:42:49.859Z,94420.38
2023-03-12T09:45:22.948Z,94422.78
2023-03-12T09:47:54.012Z,94438.38
2023-03-12T09:50:23.763Z,94444.13
2023-03-12T09:53:04.772Z,94435.53
2023-03-12T09:55:46.237Z,94454.06
2023-03-12T09:58:26.049Z,94453.19
2023-03-12T10:01:24.096Z,94454.66
2023-03-12T10:04:06.061Z,94456.91
2023-03-12T10:06:42.885Z,94446.63
2023-03-12T10:09:31.303Z,94428.03
2023-03-12T10:12:01.272Z,94436.09
2023-03-12T10:14:34.358Z,94423.38
2023-03-12T10:17:26.929Z,94428.38
2023-03-12T10:20:31.363Z,94437.47
2023-03-12T10:23:07.769Z,94433.88
2023-03-12T10:25:56.610Z,94429.19
2023-03-12T10:28:36.242Z,94416.09
2023-03-12T10:31:07.202Z,94406.03
2023-03-12T10:33:43.025Z,94408.59
2023-03-12T10:36:17.185Z,94402.13
2023-03-12T10:38:43.945Z,94408.19
2023-03-12T10:41:21.926Z,94413.94
2023-03-12T10:43:48.781Z,94394.59
2023-03-12T10:46:15.569Z,94431.19
2023-03-12T10:48:43.940Z,94441.66
2023-03-12T10:51:13.060Z,94429.00
2023-03-12T10:53:45.332Z,94427.66
2023-03-12T10:56:15.452Z,94416.44
2023-03-12T10:58:51.022Z,94404.50
2023-03-12T11:01:28.574Z,94408.53
2023-03-12T11:04:19.145Z,94406.22
2023-03-12T11:07:16.839Z,94402.72
2023-03-12T11:09:43.808Z,94418.13
2023-03-12T11:12:24.422Z,94427.06
2023-03-12T11:14:51.179Z,94421.53
2023-03-12T11:17:29.106Z,94400.22
2023-03-12T11:19:55.917Z,94427.16
2023-03-12T11:22:33.137Z,94424.91
2023-03-12T11:25:06.108Z,94427.03
2023-03-12T11:27:55.387Z,94438.22
2023-03-12T11:30:29.629Z,94443.38
2023-03-12T11:32:58.154Z,94434.63
2023-03-12T11:35:52.963Z,94416.72
2023-03-12T11:38:25.950Z,94403.44
2023-03-12T11:41:26.288Z,94401.41
2023-03-12T11:44:37.892Z,94423.00
2023-03-12T11:47:28.630Z,94435.94
2023-03-12T11:50:04.343Z,94421.19
2023-03-12T11:53:04.324Z,94418.91
2023-03-12T11:55:46.318Z,94434.88
2023-03-12T11:58:25.675Z,94369.13
2023-03-12T12:01:08.541Z,94377.78
2023-03-12T12:04:10.058Z,94385.75
2023-03-12T12:06:52.795Z,94378.56
2023-03-12T12:09:37.479Z,94422.16
2023-03-12T12:12:27.586Z,94381.84
2023-03-12T12:15:06.262Z,94383.16
2023-03-12T12:18:04.819Z,94380.69
2023-03-12T12:20:43.481Z,94362.88
2023-03-12T12:23:25.493Z,94367.22
2023-03-12T12:25:55.034Z,94339.81
2023-03-12T12:28:48.589Z,94354.03
2023-03-12T12:31:44.920Z,94356.72
2023-03-12T12:34:20.925Z,94365.81
2023-03-12T12:37:15.734Z,94385.91
2023-03-12T12:39:48.586Z,94369.59
2023-03-12T12:42:24.731Z,94338.16
2023-03-12T12:44:53.929Z,94320.47
2023-03-12T12:50:13.230Z,94323.66
2023-03-12T12:52:40.767Z,94287.50
2023-03-12T12:55:31.578Z,94345.06
2023-03-12T12:58:12.285Z,94310.84
2023-03-12T13:00:41.929Z,94334.22
2023-03-12T13:03:15.480Z,94331.25
2023-03-12T13:05:47.752Z,94317.03
2023-03-12T13:08:55.421Z,94296.88
2023-03-12T13:11:43.081Z,94326.38
2023-03-12T13:14:09.753Z,94340.63
2023-03-12T13:16:42.989Z,94319.66
2023-03-12T13:19:16.003Z,94336.41
2023-03-12T13:21:54.136Z,94353.56
2023-03-12T13:24:29.179Z,94347.81
2023-03-12T13:27:23.553Z,94335.91
2023-03-12T13:29:57.389Z,94349.63
2023-03-12T13:32:50.289Z,94333.25
2023-03-12T13:35:17.046Z,94353.09
2023-03-12T13:37:47.055Z,94351.50
2023-03-12T13:40:38.687Z,94386.72
2023-03-12T13:43:08.388Z,94380.06
2023-03-12T13:45:55.734Z,94362.34
2023-03-12T13:48:24.371Z,94346.94
2023-03-12T13:50:57.634Z,94380.91
2023-03-12T13:53:34.878Z,94370.66
2023-03-12T13:56:05.651Z,94372.03
2023-03-12T13:58:50.347Z,94365.47
2023-03-12T14:01:20.705Z,94377.22
2023-03-12T14:03:58.825Z,94389.91
2023-03-12T14:06:30.329Z,94391.72
2023-03-12T14:09:03.598Z,94396.78
2023-03-12T14:11:55.345Z,94384.38
2023-03-12T14:14:41.350Z,94381.63
2023-03-12T14:17:36.492Z,94390.06
2023-03-12T14:20:14.365Z,94369.59
2023-03-12T14:22:44.939Z,94389.50
2023-03-12T14:25:22.526Z,94367.41
2023-03-12T14:27:50.000Z,94379.91
2023-03-12T14:30:23.594Z,94374.03
2023-03-12T14:32:55.607Z,94378.03
2023-03-12T14:35:37.411Z,94384.69
2023-03-12T14:38:41.392Z,94397.97
2023-03-12T14:41:19.978Z,94370.19
2023-03-12T14:43:52.279Z,94344.78
2023-03-12T14:46:24.496Z,94379.78
2023-03-12T14:48:55.000Z,94368.25
2023-03-12T14:51:25.358Z,94373.56
2023-03-12T14:53:53.198Z,94365.63
2023-03-12T14:56:33.857Z,94387.44
2023-03-12T14:59:20.064Z,94392.63
2023-03-12T15:01:47.959Z,94371.03
2023-03-12T15:04:20.166Z,94344.84
2023-03-12T15:06:54.306Z,94339.03
2023-03-12T15:09:28.343Z,94347.94
2023-03-12T15:12:01.311Z,94366.91
2023-03-12T15:14:34.178Z,94304.97
2023-03-12T15:17:03.034Z,94332.81
2023-03-12T15:19:35.301Z,94317.31
2023-03-12T15:22:04.060Z,94318.25
2023-03-12T15:24:37.982Z,94339.66
2023-03-12T15:27:28.689Z,94343.25
2023-03-12T15:29:57.710Z,94347.88
2023-03-12T15:32:26.122Z,94369.88
2023-03-12T15:34:54.635Z,94345.56
2023-03-12T15:37:41.144Z,94295.47
2023-03-12T15:40:24.098Z,94329.31
2023-03-12T15:42:51.348Z,94325.94
2023-03-12T15:45:21.729Z,94324.78
2023-03-12T15:47:51.341Z,94301.66
2023-03-12T15:50:32.080Z,94333.84
2023-03-12T15:53:25.578Z,94355.63
2023-03-12T15:56:19.432Z,94348.16
2023-03-12T15:58:46.735Z,94334.63
2023-03-12T16:01:18.726Z,94342.34
2023-03-12T16:03:46.599Z,94345.84
2023-03-12T16:06:16.358Z,94348.72
2023-03-12T16:08:53.091Z,94319.06
2023-03-12T16:11:23.593Z,94325.47
2023-03-12T16:13:54.813Z,94323.88
2023-03-12T16:16:21.671Z,94355.91
2023-03-12T16:18:48.665Z,94328.84
2023-03-12T16:21:15.400Z,94336.41
2023-03-12T16:23:42.102Z,94333.06
2023-03-12T16:26:08.904Z,94349.94
2023-03-12T16:31:03.751Z,94344.16
2023-03-12T16:33:30.565Z,94338.94
2023-03-12T16:35:57.887Z,94344.75
2023-03-12T16:38:24.754Z,94369.31
2023-03-12T16:40:52.827Z,94377.06
2023-03-12T16:43:23.394Z,94382.34
2023-03-12T16:45:52.479Z,94394.19
2023-03-12T16:48:23.129Z,94364.50
2023-03-12T16:50:59.909Z,94356.88
2023-03-12T16:53:27.081Z,94359.81
2023-03-12T16:55:56.915Z,94366.44
2023-03-12T16:58:25.904Z,94366.94
2023-03-12T17:00:54.471Z,94381.47
2023-03-12T17:03:37.365Z,94421.97
2023-03-12T17:06:07.061Z,94399.06
2023-03-12T17:08:36.353Z,94390.66
2023-03-12T17:11:12.352Z,94384.59
2023-03-12T17:13:39.183Z,94396.13
2023-03-12T17:16:07.337Z,94398.16
2023-03-12T17:18:34.298Z,94418.25
2023-03-12T17:21:01.617Z,94436.78
2023-03-12T17:23:28.645Z,94420.56
2023-03-12T17:25:55.653Z,94444.13
2023-03-12T17:28:22.446Z,94434.00
2023-03-12T17:30:49.423Z,94442.31
2023-03-12T17:33:18.246Z,94453.06
2023-03-12T17:35:45.886Z,94445.63
2023-03-12T17:38:13.176Z,94431.94
2023-03-12T17:40:44.645Z,94426.44
2023-03-12T17:43:11.921Z,94429.25
2023-03-12T17:45:38.810Z,94425.25
2023-03-12T17:48:07.006Z,94421.94
2023-03-12T17:50:34.161Z,94448.75
2023-03-12T17:53:01.349Z,94413.69
2023-03-12T17:55:28.152Z,94448.38
2023-03-12T17:57:54.915Z,94454.03
2023-03-12T18:00:23.134Z,94424.88
2023-03-12T18:02:50.947Z,94452.94
2023-03-12T18:05:17.968Z,94464.59
2023-03-12T18:07:47.397Z,94458.69
2023-03-12T18:10:14.810Z,94460.81
2023-03-12T18:12:41.624Z,94447.41
2023-03-12T18:15:11.174Z,94456.06
2023-03-12T18:17:38.194Z,94467.91
2023-03-12T18:20:09.715Z,94472.72
2023-03-12T18:22:38.450Z,94474.50
2023-03-12T18:25:07.393Z,94473.97
2023-03-12T18:27:34.676Z,94497.38
2023-03-12T18:30:02.682Z,94491.97
2023-03-12T18:32:29.568Z,94493.22
2023-03-12T18:34:56.874Z,94479.38
2023-03-12T18:37:23.631Z,94490.38
2023-03-12T18:39:52.928Z,94493.53
2023-03-12T18:42:22.379Z,94484.41
2023-03-12T18:44:51.978Z,94476.75
2023-03-12T18:47:19.291Z,94485.56
2023-03-12T18:49:53.098Z,94420.34
2023-03-12T18:52:21.466Z,94399.56
2023-03-12T18:54:48.244Z,94453.53
2023-03-12T18:57:15.349Z,94444.78
2023-03-12T18:59:45.503Z,94438.16
2023-03-12T19:02:12.534Z,94447.66
2023-03-12T19:04:39.586Z,94455.00
2023-03-12T19:07:08.264Z,94484.78
2023-03-12T19:09:35.446Z,94446.19
2023-03-12T19:12:02.811Z,94487.09
2023-03-12T19:14:30.406Z,94487.28
2023-03-12T19:16:57.646Z,94488.50
2023-03-12T19:19:24.874Z,94486.13
2023-03-12T19:21:52.721Z,94494.75
2023-03-12T19:24:19.562Z,94512.47
2023-03-12T19:26:46.298Z,94517.63
2023-03-12T19:29:15.184Z,94508.59
2023-03-12T19:31:43.232Z,94507.78
2023-03-12T19:34:10.190Z,94517.50
2023-03-12T19:36:38.446Z,94537.59
2023-03-12T19:39:15.262Z,94516.34
2023-03-12T19:41:47.640Z,94554.41
2023-03-12T19:44:14.362Z,94526.75
2023-03-12T19:46:43.255Z,94534.50
2023-03-12T19:49:10.320Z,94510.44
2023-03-12T19:51:40.257Z,94519.78
2023-03-12T19:54:08.244Z,94510.28
2023-03-12T19:56:35.031Z,94538.56
2023-03-12T19:59:02.641Z,94520.38
2023-03-12T20:01:29.332Z,94525.63
2023-03-12T20:03:56.069Z,94493.91
2023-03-12T20:06:23.345Z,94524.38
2023-03-12T20:08:50.176Z,94513.47
2023-03-12T20:11:17.368Z,94538.53
2023-03-12T20:13:45.249Z,94500.47
2023-03-12T20:16:13.909Z,94537.44
2023-03-12T20:18:40.739Z,94564.50
2023-03-12T20:21:08.450Z,94558.16
2023-03-12T20:23:35.364Z,94582.19
2023-03-12T20:26:02.602Z,94581.38
2023-03-12T20:28:29.601Z,94559.81
2023-03-12T20:30:56.362Z,94556.19
2023-03-12T20:33:23.708Z,94544.66
2023-03-12T20:35:50.642Z,94526.75
2023-03-12T20:38:18.926Z,94557.63
2023-03-12T20:40:46.488Z,94563.44
2023-03-12T20:43:13.277Z,94535.22
2023-03-12T20:45:40.126Z,94525.38
2023-03-12T20:48:07.701Z,94515.69
2023-03-12T20:50:39.345Z,94546.03
2023-03-12T20:53:07.639Z,94549.56
2023-03-12T20:55:34.389Z,94554.06
2023-03-12T20:58:01.134Z,94525.56
2023-03-12T21:00:28.117Z,94519.19
2023-03-12T21:02:54.818Z,94518.97
2023-03-12T21:05:24.920Z,94516.25
2023-03-12T21:07:54.048Z,94546.06
2023-03-12T21:10:23.505Z,94555.91
2023-03-12T21:12:50.395Z,94566.22
2023-03-12T21:15:17.134Z,94564.56
2023-03-12T21:17:43.858Z,94550.19
2023-03-12T21:20:18.858Z,94565.81
2023-03-12T21:22:47.005Z,94556.63
2023-03-12T21:25:14.056Z,94560.88
2023-03-12T21:27:50.493Z,94555.78
2023-03-12T21:30:19.220Z,94553.44
2023-03-12T21:32:46.212Z,94567.16
2023-03-12T21:35:13.033Z,94573.81
2023-03-12T21:37:40.028Z,94572.22
2023-03-12T21:40:09.195Z,94557.69
2023-03-12T21:42:35.976Z,94599.56
2023-03-12T21:45:03.466Z,94617.34
2023-03-12T21:47:30.384Z,94578.19
2023-03-12T21:49:57.319Z,94589.53
2023-03-12T21:52:24.277Z,94598.16
2023-03-12T21:54:51.019Z,94584.81
2023-03-12T21:57:17.719Z,94584.59
2023-03-12T21:59:44.499Z,94598.34
2023-03-12T22:02:12.954Z,94588.28
2023-03-12T22:04:39.972Z,94589.06
2023-03-12T22:07:08.117Z,94575.47
2023-03-12T22:09:34.861Z,94571.63
2023-03-12T22:12:01.871Z,94601.56
2023-03-12T22:14:28.987Z,94587.34
2023-03-12T22:16:55.859Z,94585.19
2023-03-12T22:19:24.325Z,94586.97
2023-03-12T22:21:51.087Z,94593.72
2023-03-12T22:24:17.787Z,94575.69
2023-03-12T22:26:45.908Z,94553.22
2023-03-12T22:29:12.788Z,94562.16
2023-03-12T22:31:39.764Z,94537.06
2023-03-12T22:34:06.516Z,94544.22
2023-03-12T22:36:33.716Z,94543.44
2023-03-12T22:39:00.477Z,94552.66
2023-03-12T22:41:29.322Z,94547.41
2023-03-12T22:44:01.375Z,94539.59
2023-03-12T22:46:28.764Z,94509.97
2023-03-12T22:48:57.633Z,94519.25
2023-03-12T22:51:25.633Z,94520.22
2023-03-12T22:53:53.540Z,94510.75
2023-03-12T22:56:20.516Z,94520.41
2023-03-12T22:58:48.055Z,94507.69
2023-03-12T23:01:20.296Z,94497.03
2023-03-12T23:03:47.290Z,94477.19
2023-03-12T23:06:29.879Z,94476.31
2023-03-12T23:08:57.252Z,94483.28
2023-03-12T23:11:26.801Z,94504.94
2023-03-12T23:13:54.904Z,94492.06
2023-03-12T23:16:24.329Z,94500.81
2023-03-12T23:18:51.780Z,94479.47
2023-03-12T23:21:21.042Z,94482.53
2023-03-12T23:23:49.197Z,94520.69
2023-03-12T23:26:22.385Z,94489.94
2023-03-12T23:28:53.837Z,94473.06
2023-03-12T23:31:21.605Z,94467.63
2023-03-12T23:33:48.595Z,94466.03
2023-03-12T23:36:18.333Z,94479.84
2023-03-12T23:38:46.631Z,94473.53
2023-03-12T23:41:21.992Z,94468.84
2023-03-12T23:43:49.413Z,94490.63
2023-03-12T23:46:17.194Z,94492.00
2023-03-12T23:48:45.716Z,94485.97
2023-03-12T23:51:18.413Z,94473.13
2023-03-12T23:53:47.128Z,94484.13
2023-03-12T23:56:17.521Z,94475.91
2023-03-12T23:58:45.315Z,94477.56
